sensor_id;sensor_type;location;lat;lon;timestamp;P1;durP1;ratioP1;P2;durP2;ratioP2
53503;SDS011;39387;50.998;22.340;2023-05-07T00:00:25;3.40;;;2.22;;
53503;SDS011;39387;50.998;22.340;2023-05-07T00:06:10;2.88;;;2.38;;
53503;SDS011;39387;50.998;22.340;2023-05-07T00:08:38;2.95;;;2.20;;
53503;SDS011;39387;50.998;22.340;2023-05-07T00:11:05;3.42;;;2.08;;
53503;SDS011;39387;50.998;22.340;2023-05-07T00:13:33;3.10;;;2.15;;
53503;SDS011;39387;50.998;22.340;2023-05-07T00:16:01;3.42;;;1.88;;
53503;SDS011;39387;50.998;22.340;2023-05-07T00:18:28;5.95;;;1.88;;
53503;SDS011;39387;50.998;22.340;2023-05-07T00:20:58;3.45;;;2.10;;
53503;SDS011;39387;50.998;22.340;2023-05-07T00:23:25;2.75;;;2.00;;
53503;SDS011;39387;50.998;22.340;2023-05-07T00:25:53;2.95;;;2.10;;
53503;SDS011;39387;50.998;22.340;2023-05-07T00:28:20;2.33;;;1.77;;
53503;SDS011;39387;50.998;22.340;2023-05-07T00:30:47;3.00;;;1.80;;
53503;SDS011;39387;50.998;22.340;2023-05-07T00:33:15;2.63;;;2.03;;
53503;SDS011;39387;50.998;22.340;2023-05-07T00:35:43;3.15;;;1.80;;
53503;SDS011;39387;50.998;22.340;2023-05-07T00:38:11;3.13;;;2.10;;
53503;SDS011;39387;50.998;22.340;2023-05-07T00:40:39;2.70;;;2.10;;
53503;SDS011;39387;50.998;22.340;2023-05-07T00:43:07;3.13;;;2.40;;
53503;SDS011;39387;50.998;22.340;2023-05-07T00:45:35;3.08;;;1.77;;
53503;SDS011;39387;50.998;22.340;2023-05-07T00:48:03;2.72;;;1.67;;
53503;SDS011;39387;50.998;22.340;2023-05-07T00:50:31;3.30;;;2.25;;
53503;SDS011;39387;50.998;22.340;2023-05-07T00:52:59;3.63;;;1.98;;
53503;SDS011;39387;50.998;22.340;2023-05-07T00:55:29;2.80;;;2.15;;
53503;SDS011;39387;50.998;22.340;2023-05-07T00:57:57;3.83;;;2.10;;
53503;SDS011;39387;50.998;22.340;2023-05-07T01:00:25;3.70;;;2.22;;
53503;SDS011;39387;50.998;22.340;2023-05-07T01:06:35;3.33;;;2.00;;
53503;SDS011;39387;50.998;22.340;2023-05-07T01:09:03;2.97;;;2.15;;
53503;SDS011;39387;50.998;22.340;2023-05-07T01:11:33;2.53;;;1.77;;
53503;SDS011;39387;50.998;22.340;2023-05-07T01:14:03;3.53;;;2.03;;
53503;SDS011;39387;50.998;22.340;2023-05-07T01:16:32;2.28;;;1.83;;
53503;SDS011;39387;50.998;22.340;2023-05-07T01:19:00;5.25;;;1.90;;
53503;SDS011;39387;50.998;22.340;2023-05-07T01:21:27;2.55;;;2.22;;
53503;SDS011;39387;50.998;22.340;2023-05-07T01:24:01;2.97;;;2.00;;
53503;SDS011;39387;50.998;22.340;2023-05-07T01:26:28;3.03;;;2.05;;
53503;SDS011;39387;50.998;22.340;2023-05-07T01:28:55;2.90;;;1.98;;
53503;SDS011;39387;50.998;22.340;2023-05-07T01:31:23;4.38;;;2.05;;
53503;SDS011;39387;50.998;22.340;2023-05-07T01:33:51;2.90;;;1.88;;
53503;SDS011;39387;50.998;22.340;2023-05-07T01:36:19;2.83;;;2.20;;
53503;SDS011;39387;50.998;22.340;2023-05-07T01:38:48;2.90;;;2.17;;
53503;SDS011;39387;50.998;22.340;2023-05-07T01:41:17;2.67;;;2.08;;
53503;SDS011;39387;50.998;22.340;2023-05-07T01:43:46;3.00;;;2.08;;
53503;SDS011;39387;50.998;22.340;2023-05-07T01:46:14;2.20;;;1.70;;
53503;SDS011;39387;50.998;22.340;2023-05-07T01:48:42;3.67;;;2.30;;
53503;SDS011;39387;50.998;22.340;2023-05-07T01:51:11;3.10;;;2.13;;
53503;SDS011;39387;50.998;22.340;2023-05-07T01:53:39;3.42;;;2.45;;
53503;SDS011;39387;50.998;22.340;2023-05-07T01:56:09;3.15;;;2.50;;
53503;SDS011;39387;50.998;22.340;2023-05-07T01:58:40;2.58;;;1.98;;
53503;SDS011;39387;50.998;22.340;2023-05-07T02:01:08;3.78;;;2.35;;
53503;SDS011;39387;50.998;22.340;2023-05-07T02:03:36;2.97;;;2.10;;
53503;SDS011;39387;50.998;22.340;2023-05-07T02:06:03;3.03;;;2.08;;
53503;SDS011;39387;50.998;22.340;2023-05-07T02:08:31;3.25;;;2.22;;
53503;SDS011;39387;50.998;22.340;2023-05-07T02:10:59;2.63;;;2.03;;
53503;SDS011;39387;50.998;22.340;2023-05-07T02:13:28;3.50;;;2.42;;
53503;SDS011;39387;50.998;22.340;2023-05-07T02:15:58;2.80;;;1.90;;
53503;SDS011;39387;50.998;22.340;2023-05-07T02:18:26;2.45;;;2.08;;
53503;SDS011;39387;50.998;22.340;2023-05-07T02:20:54;3.22;;;1.90;;
53503;SDS011;39387;50.998;22.340;2023-05-07T02:23:21;3.42;;;2.17;;
53503;SDS011;39387;50.998;22.340;2023-05-07T02:25:49;3.63;;;2.05;;
53503;SDS011;39387;50.998;22.340;2023-05-07T02:28:16;2.88;;;1.98;;
53503;SDS011;39387;50.998;22.340;2023-05-07T02:30:43;5.78;;;2.05;;
53503;SDS011;39387;50.998;22.340;2023-05-07T02:33:12;2.70;;;1.90;;
53503;SDS011;39387;50.998;22.340;2023-05-07T02:35:39;2.22;;;1.63;;
53503;SDS011;39387;50.998;22.340;2023-05-07T02:38:06;2.88;;;1.83;;
53503;SDS011;39387;50.998;22.340;2023-05-07T02:40:36;2.63;;;1.85;;
53503;SDS011;39387;50.998;22.340;2023-05-07T02:43:05;3.05;;;1.80;;
53503;SDS011;39387;50.998;22.340;2023-05-07T02:45:33;2.92;;;1.73;;
53503;SDS011;39387;50.998;22.340;2023-05-07T02:48:01;2.70;;;1.73;;
53503;SDS011;39387;50.998;22.340;2023-05-07T02:50:30;2.72;;;2.03;;
53503;SDS011;39387;50.998;22.340;2023-05-07T02:52:58;2.20;;;1.55;;
53503;SDS011;39387;50.998;22.340;2023-05-07T02:55:26;2.10;;;1.58;;
53503;SDS011;39387;50.998;22.340;2023-05-07T02:57:53;4.10;;;1.88;;
53503;SDS011;39387;50.998;22.340;2023-05-07T03:00:21;1.83;;;1.40;;
53503;SDS011;39387;50.998;22.340;2023-05-07T03:02:49;2.33;;;1.42;;
53503;SDS011;39387;50.998;22.340;2023-05-07T03:05:17;2.30;;;1.50;;
53503;SDS011;39387;50.998;22.340;2023-05-07T03:07:45;2.10;;;1.52;;
53503;SDS011;39387;50.998;22.340;2023-05-07T03:10:13;2.20;;;1.50;;
53503;SDS011;39387;50.998;22.340;2023-05-07T03:12:41;1.85;;;1.20;;
53503;SDS011;39387;50.998;22.340;2023-05-07T03:15:09;1.65;;;1.35;;
53503;SDS011;39387;50.998;22.340;2023-05-07T03:17:38;3.08;;;1.60;;
53503;SDS011;39387;50.998;22.340;2023-05-07T03:20:06;2.17;;;1.42;;
53503;SDS011;39387;50.998;22.340;2023-05-07T03:22:35;2.22;;;1.30;;
53503;SDS011;39387;50.998;22.340;2023-05-07T03:25:04;2.38;;;1.45;;
53503;SDS011;39387;50.998;22.340;2023-05-07T03:27:32;2.20;;;1.40;;
53503;SDS011;39387;50.998;22.340;2023-05-07T03:30:00;2.28;;;1.42;;
53503;SDS011;39387;50.998;22.340;2023-05-07T03:32:27;2.17;;;1.63;;
53503;SDS011;39387;50.998;22.340;2023-05-07T03:34:55;1.90;;;1.20;;
53503;SDS011;39387;50.998;22.340;2023-05-07T03:37:22;2.28;;;1.52;;
53503;SDS011;39387;50.998;22.340;2023-05-07T03:39:50;2.42;;;1.63;;
53503;SDS011;39387;50.998;22.340;2023-05-07T03:42:19;1.83;;;1.50;;
53503;SDS011;39387;50.998;22.340;2023-05-07T03:44:47;1.98;;;1.70;;
53503;SDS011;39387;50.998;22.340;2023-05-07T03:47:15;2.03;;;1.52;;
53503;SDS011;39387;50.998;22.340;2023-05-07T03:49:43;2.83;;;1.50;;
53503;SDS011;39387;50.998;22.340;2023-05-07T03:52:10;3.35;;;1.65;;
53503;SDS011;39387;50.998;22.340;2023-05-07T03:54:38;2.47;;;1.45;;
53503;SDS011;39387;50.998;22.340;2023-05-07T03:57:06;2.15;;;1.42;;
53503;SDS011;39387;50.998;22.340;2023-05-07T03:59:38;1.60;;;1.50;;
53503;SDS011;39387;50.998;22.340;2023-05-07T04:02:05;2.08;;;1.60;;
53503;SDS011;39387;50.998;22.340;2023-05-07T04:04:33;1.88;;;1.40;;
53503;SDS011;39387;50.998;22.340;2023-05-07T04:07:00;1.73;;;1.40;;
53503;SDS011;39387;50.998;22.340;2023-05-07T04:09:28;2.13;;;1.50;;
53503;SDS011;39387;50.998;22.340;2023-05-07T04:11:56;2.13;;;1.40;;
53503;SDS011;39387;50.998;22.340;2023-05-07T04:14:24;2.05;;;1.30;;
53503;SDS011;39387;50.998;22.340;2023-05-07T04:16:53;3.25;;;1.73;;
53503;SDS011;39387;50.998;22.340;2023-05-07T04:19:20;1.45;;;1.35;;
53503;SDS011;39387;50.998;22.340;2023-05-07T04:21:48;1.95;;;1.48;;
53503;SDS011;39387;50.998;22.340;2023-05-07T04:24:15;1.80;;;1.30;;
53503;SDS011;39387;50.998;22.340;2023-05-07T04:26:42;1.40;;;1.27;;
53503;SDS011;39387;50.998;22.340;2023-05-07T04:29:10;2.60;;;1.50;;
53503;SDS011;39387;50.998;22.340;2023-05-07T04:31:37;2.47;;;1.73;;
53503;SDS011;39387;50.998;22.340;2023-05-07T04:34:07;1.83;;;1.50;;
53503;SDS011;39387;50.998;22.340;2023-05-07T04:36:34;1.85;;;1.40;;
53503;SDS011;39387;50.998;22.340;2023-05-07T04:39:02;1.50;;;1.40;;
53503;SDS011;39387;50.998;22.340;2023-05-07T04:41:29;2.15;;;1.70;;
53503;SDS011;39387;50.998;22.340;2023-05-07T04:43:57;1.88;;;1.40;;
53503;SDS011;39387;50.998;22.340;2023-05-07T04:46:25;2.08;;;1.70;;
53503;SDS011;39387;50.998;22.340;2023-05-07T04:48:53;2.50;;;1.45;;
53503;SDS011;39387;50.998;22.340;2023-05-07T04:51:21;1.80;;;1.50;;
53503;SDS011;39387;50.998;22.340;2023-05-07T04:53:49;2.95;;;1.63;;
53503;SDS011;39387;50.998;22.340;2023-05-07T04:56:16;2.10;;;1.40;;
53503;SDS011;39387;50.998;22.340;2023-05-07T04:58:44;3.22;;;1.95;;
53503;SDS011;39387;50.998;22.340;2023-05-07T05:01:11;7.53;;;3.47;;
53503;SDS011;39387;50.998;22.340;2023-05-07T05:03:39;3.88;;;2.13;;
53503;SDS011;39387;50.998;22.340;2023-05-07T05:06:06;2.63;;;1.33;;
53503;SDS011;39387;50.998;22.340;2023-05-07T05:08:35;2.17;;;1.45;;
53503;SDS011;39387;50.998;22.340;2023-05-07T05:11:03;1.65;;;1.17;;
53503;SDS011;39387;50.998;22.340;2023-05-07T05:13:31;1.55;;;1.10;;
53503;SDS011;39387;50.998;22.340;2023-05-07T05:15:59;1.40;;;1.27;;
53503;SDS011;39387;50.998;22.340;2023-05-07T05:18:27;1.23;;;1.13;;
53503;SDS011;39387;50.998;22.340;2023-05-07T05:20:54;1.77;;;1.50;;
53503;SDS011;39387;50.998;22.340;2023-05-07T05:23:22;1.65;;;1.27;;
53503;SDS011;39387;50.998;22.340;2023-05-07T05:25:51;1.85;;;1.35;;
53503;SDS011;39387;50.998;22.340;2023-05-07T05:28:23;1.60;;;1.10;;
53503;SDS011;39387;50.998;22.340;2023-05-07T05:30:51;1.70;;;1.40;;
53503;SDS011;39387;50.998;22.340;2023-05-07T05:33:19;1.63;;;1.30;;
53503;SDS011;39387;50.998;22.340;2023-05-07T05:35:46;1.50;;;1.30;;
53503;SDS011;39387;50.998;22.340;2023-05-07T05:38:14;1.63;;;1.30;;
53503;SDS011;39387;50.998;22.340;2023-05-07T05:40:41;7.38;;;3.20;;
53503;SDS011;39387;50.998;22.340;2023-05-07T05:43:10;11.48;;;5.18;;
53503;SDS011;39387;50.998;22.340;2023-05-07T05:45:37;11.65;;;5.35;;
53503;SDS011;39387;50.998;22.340;2023-05-07T05:48:05;4.75;;;2.78;;
53503;SDS011;39387;50.998;22.340;2023-05-07T05:50:33;3.72;;;2.20;;
53503;SDS011;39387;50.998;22.340;2023-05-07T05:53:02;2.25;;;1.40;;
53503;SDS011;39387;50.998;22.340;2023-05-07T05:55:29;3.05;;;1.58;;
53503;SDS011;39387;50.998;22.340;2023-05-07T05:57:58;2.55;;;1.48;;
53503;SDS011;39387;50.998;22.340;2023-05-07T06:00:27;3.10;;;1.33;;
53503;SDS011;39387;50.998;22.340;2023-05-07T06:02:56;3.10;;;1.75;;
53503;SDS011;39387;50.998;22.340;2023-05-07T06:05:23;2.58;;;1.20;;
53503;SDS011;39387;50.998;22.340;2023-05-07T06:07:50;2.67;;;1.55;;
53503;SDS011;39387;50.998;22.340;2023-05-07T06:10:17;2.40;;;1.42;;
53503;SDS011;39387;50.998;22.340;2023-05-07T06:12:45;4.32;;;1.90;;
53503;SDS011;39387;50.998;22.340;2023-05-07T06:15:12;1.80;;;1.55;;
53503;SDS011;39387;50.998;22.340;2023-05-07T06:17:41;2.13;;;1.80;;
53503;SDS011;39387;50.998;22.340;2023-05-07T06:20:09;2.15;;;1.58;;
53503;SDS011;39387;50.998;22.340;2023-05-07T06:22:36;1.70;;;1.42;;
53503;SDS011;39387;50.998;22.340;2023-05-07T06:25:04;2.55;;;1.60;;
53503;SDS011;39387;50.998;22.340;2023-05-07T06:27:32;1.80;;;1.58;;
53503;SDS011;39387;50.998;22.340;2023-05-07T06:29:59;1.58;;;1.38;;
53503;SDS011;39387;50.998;22.340;2023-05-07T06:32:27;3.42;;;2.10;;
53503;SDS011;39387;50.998;22.340;2023-05-07T06:34:56;2.95;;;1.75;;
53503;SDS011;39387;50.998;22.340;2023-05-07T06:37:23;1.70;;;1.45;;
53503;SDS011;39387;50.998;22.340;2023-05-07T06:39:51;2.13;;;1.60;;
53503;SDS011;39387;50.998;22.340;2023-05-07T06:42:18;2.17;;;1.63;;
53503;SDS011;39387;50.998;22.340;2023-05-07T06:44:45;2.47;;;1.90;;
53503;SDS011;39387;50.998;22.340;2023-05-07T06:47:13;2.83;;;1.58;;
53503;SDS011;39387;50.998;22.340;2023-05-07T06:49:40;1.75;;;1.45;;
53503;SDS011;39387;50.998;22.340;2023-05-07T06:52:09;2.63;;;2.00;;
53503;SDS011;39387;50.998;22.340;2023-05-07T06:54:36;2.25;;;1.75;;
53503;SDS011;39387;50.998;22.340;2023-05-07T06:57:04;2.42;;;1.60;;
53503;SDS011;39387;50.998;22.340;2023-05-07T06:59:31;2.30;;;1.63;;
53503;SDS011;39387;50.998;22.340;2023-05-07T07:01:59;2.13;;;1.50;;
53503;SDS011;39387;50.998;22.340;2023-05-07T07:04:26;2.08;;;1.60;;
53503;SDS011;39387;50.998;22.340;2023-05-07T07:06:54;2.13;;;1.80;;
53503;SDS011;39387;50.998;22.340;2023-05-07T07:09:23;2.17;;;1.80;;
53503;SDS011;39387;50.998;22.340;2023-05-07T07:11:51;3.13;;;2.20;;
53503;SDS011;39387;50.998;22.340;2023-05-07T07:14:18;2.35;;;1.95;;
53503;SDS011;39387;50.998;22.340;2023-05-07T07:16:46;2.72;;;1.90;;
53503;SDS011;39387;50.998;22.340;2023-05-07T07:19:13;2.80;;;1.95;;
53503;SDS011;39387;50.998;22.340;2023-05-07T07:21:41;4.00;;;2.30;;
53503;SDS011;39387;50.998;22.340;2023-05-07T07:24:10;2.63;;;1.95;;
53503;SDS011;39387;50.998;22.340;2023-05-07T07:26:39;2.10;;;1.55;;
53503;SDS011;39387;50.998;22.340;2023-05-07T07:29:08;2.63;;;2.00;;
53503;SDS011;39387;50.998;22.340;2023-05-07T07:31:35;2.63;;;1.88;;
53503;SDS011;39387;50.998;22.340;2023-05-07T07:34:03;2.97;;;1.92;;
53503;SDS011;39387;50.998;22.340;2023-05-07T07:36:30;2.85;;;1.88;;
53503;SDS011;39387;50.998;22.340;2023-05-07T07:38:57;2.13;;;1.90;;
53503;SDS011;39387;50.998;22.340;2023-05-07T07:41:25;3.28;;;1.90;;
53503;SDS011;39387;50.998;22.340;2023-05-07T07:43:54;2.33;;;2.03;;
53503;SDS011;39387;50.998;22.340;2023-05-07T07:46:21;2.15;;;1.95;;
53503;SDS011;39387;50.998;22.340;2023-05-07T07:48:48;2.30;;;1.75;;
53503;SDS011;39387;50.998;22.340;2023-05-07T07:51:16;2.53;;;2.20;;
53503;SDS011;39387;50.998;22.340;2023-05-07T07:53:43;2.47;;;2.10;;
53503;SDS011;39387;50.998;22.340;2023-05-07T07:56:11;3.22;;;1.85;;
53503;SDS011;39387;50.998;22.340;2023-05-07T07:58:38;2.38;;;1.88;;
53503;SDS011;39387;50.998;22.340;2023-05-07T08:01:07;3.80;;;2.22;;
53503;SDS011;39387;50.998;22.340;2023-05-07T08:03:34;3.13;;;2.00;;
53503;SDS011;39387;50.998;22.340;2023-05-07T08:06:04;2.10;;;1.80;;
53503;SDS011;39387;50.998;22.340;2023-05-07T08:08:31;2.47;;;1.77;;
53503;SDS011;39387;50.998;22.340;2023-05-07T08:10:59;2.00;;;1.75;;
53503;SDS011;39387;50.998;22.340;2023-05-07T08:13:26;3.55;;;1.88;;
53503;SDS011;39387;50.998;22.340;2023-05-07T08:15:54;4.35;;;2.00;;
53503;SDS011;39387;50.998;22.340;2023-05-07T08:18:22;2.00;;;1.80;;
53503;SDS011;39387;50.998;22.340;2023-05-07T08:20:51;2.22;;;1.60;;
53503;SDS011;39387;50.998;22.340;2023-05-07T08:23:18;2.80;;;1.83;;
53503;SDS011;39387;50.998;22.340;2023-05-07T08:25:46;4.18;;;1.60;;
53503;SDS011;39387;50.998;22.340;2023-05-07T08:28:13;3.63;;;1.83;;
53503;SDS011;39387;50.998;22.340;2023-05-07T08:30:41;1.55;;;1.40;;
53503;SDS011;39387;50.998;22.340;2023-05-07T08:33:08;1.98;;;1.35;;
53503;SDS011;39387;50.998;22.340;2023-05-07T08:35:38;2.05;;;1.65;;
53503;SDS011;39387;50.998;22.340;2023-05-07T08:38:05;2.15;;;1.60;;
53503;SDS011;39387;50.998;22.340;2023-05-07T08:40:34;3.28;;;2.00;;
53503;SDS011;39387;50.998;22.340;2023-05-07T08:43:05;3.22;;;1.70;;
53503;SDS011;39387;50.998;22.340;2023-05-07T08:45:33;3.25;;;1.60;;
53503;SDS011;39387;50.998;22.340;2023-05-07T08:48:02;3.28;;;1.70;;
53503;SDS011;39387;50.998;22.340;2023-05-07T08:50:30;2.80;;;1.73;;
53503;SDS011;39387;50.998;22.340;2023-05-07T08:52:59;1.65;;;1.55;;
53503;SDS011;39387;50.998;22.340;2023-05-07T08:55:27;2.60;;;1.83;;
53503;SDS011;39387;50.998;22.340;2023-05-07T08:57:55;3.72;;;2.28;;
53503;SDS011;39387;50.998;22.340;2023-05-07T09:00:23;3.70;;;1.88;;
53503;SDS011;39387;50.998;22.340;2023-05-07T09:02:51;3.10;;;1.80;;
53503;SDS011;39387;50.998;22.340;2023-05-07T09:05:19;1.95;;;1.70;;
53503;SDS011;39387;50.998;22.340;2023-05-07T09:07:47;3.50;;;2.05;;
53503;SDS011;39387;50.998;22.340;2023-05-07T09:10:18;2.27;;;1.77;;
53503;SDS011;39387;50.998;22.340;2023-05-07T09:12:47;2.47;;;2.08;;
53503;SDS011;39387;50.998;22.340;2023-05-07T09:15:15;4.03;;;2.00;;
53503;SDS011;39387;50.998;22.340;2023-05-07T09:17:42;2.97;;;2.05;;
53503;SDS011;39387;50.998;22.340;2023-05-07T09:20:10;2.28;;;1.60;;
53503;SDS011;39387;50.998;22.340;2023-05-07T09:22:38;1.67;;;1.58;;
53503;SDS011;39387;50.998;22.340;2023-05-07T09:25:06;2.45;;;1.90;;
53503;SDS011;39387;50.998;22.340;2023-05-07T09:27:36;3.50;;;2.33;;
53503;SDS011;39387;50.998;22.340;2023-05-07T09:30:04;2.38;;;1.75;;
53503;SDS011;39387;50.998;22.340;2023-05-07T09:32:34;2.55;;;1.70;;
53503;SDS011;39387;50.998;22.340;2023-05-07T09:35:04;2.78;;;1.83;;
53503;SDS011;39387;50.998;22.340;2023-05-07T09:37:32;2.80;;;1.63;;
53503;SDS011;39387;50.998;22.340;2023-05-07T09:39:59;2.55;;;1.88;;
53503;SDS011;39387;50.998;22.340;2023-05-07T09:42:27;2.70;;;1.90;;
53503;SDS011;39387;50.998;22.340;2023-05-07T09:44:56;2.50;;;1.75;;
53503;SDS011;39387;50.998;22.340;2023-05-07T09:47:24;2.65;;;2.10;;
53503;SDS011;39387;50.998;22.340;2023-05-07T09:49:54;4.53;;;2.22;;
53503;SDS011;39387;50.998;22.340;2023-05-07T09:52:22;3.00;;;1.92;;
53503;SDS011;39387;50.998;22.340;2023-05-07T09:54:54;3.40;;;1.75;;
53503;SDS011;39387;50.998;22.340;2023-05-07T09:57:22;3.22;;;2.28;;
53503;SDS011;39387;50.998;22.340;2023-05-07T09:59:50;3.55;;;2.33;;
53503;SDS011;39387;50.998;22.340;2023-05-07T10:02:20;3.40;;;2.42;;
53503;SDS011;39387;50.998;22.340;2023-05-07T10:04:49;2.60;;;1.80;;
53503;SDS011;39387;50.998;22.340;2023-05-07T10:07:17;3.17;;;2.15;;
53503;SDS011;39387;50.998;22.340;2023-05-07T10:09:44;2.40;;;1.80;;
53503;SDS011;39387;50.998;22.340;2023-05-07T10:12:13;2.30;;;1.80;;
53503;SDS011;39387;50.998;22.340;2023-05-07T10:14:41;2.80;;;1.98;;
53503;SDS011;39387;50.998;22.340;2023-05-07T10:17:09;3.55;;;1.67;;
53503;SDS011;39387;50.998;22.340;2023-05-07T10:19:40;2.10;;;1.90;;
53503;SDS011;39387;50.998;22.340;2023-05-07T10:22:08;2.85;;;1.80;;
53503;SDS011;39387;50.998;22.340;2023-05-07T10:24:36;2.83;;;1.70;;
53503;SDS011;39387;50.998;22.340;2023-05-07T10:27:06;3.58;;;1.80;;
53503;SDS011;39387;50.998;22.340;2023-05-07T10:29:37;2.92;;;2.10;;
53503;SDS011;39387;50.998;22.340;2023-05-07T10:32:19;1.75;;;1.60;;
53503;SDS011;39387;50.998;22.340;2023-05-07T10:35:06;3.28;;;1.80;;
53503;SDS011;39387;50.998;22.340;2023-05-07T10:37:37;2.90;;;2.00;;
53503;SDS011;39387;50.998;22.340;2023-05-07T10:40:05;3.22;;;2.00;;
53503;SDS011;39387;50.998;22.340;2023-05-07T10:42:34;3.00;;;1.83;;
53503;SDS011;39387;50.998;22.340;2023-05-07T10:45:11;3.90;;;2.10;;
53503;SDS011;39387;50.998;22.340;2023-05-07T10:50:37;2.22;;;1.63;;
53503;SDS011;39387;50.998;22.340;2023-05-07T10:53:21;3.97;;;2.10;;
53503;SDS011;39387;50.998;22.340;2023-05-07T11:02:10;3.33;;;1.90;;
53503;SDS011;39387;50.998;22.340;2023-05-07T11:04:39;3.05;;;2.13;;
53503;SDS011;39387;50.998;22.340;2023-05-07T11:09:59;3.13;;;2.25;;
53503;SDS011;39387;50.998;22.340;2023-05-07T11:15:36;3.33;;;1.70;;
53503;SDS011;39387;50.998;22.340;2023-05-07T11:18:05;3.20;;;2.00;;
53503;SDS011;39387;50.998;22.340;2023-05-07T11:20:51;2.45;;;1.90;;
53503;SDS011;39387;50.998;22.340;2023-05-07T11:26:26;3.58;;;2.00;;
53503;SDS011;39387;50.998;22.340;2023-05-07T11:28:56;3.25;;;2.33;;
53503;SDS011;39387;50.998;22.340;2023-05-07T11:31:26;3.78;;;2.20;;
53503;SDS011;39387;50.998;22.340;2023-05-07T11:33:55;3.85;;;2.20;;
53503;SDS011;39387;50.998;22.340;2023-05-07T11:36:23;2.97;;;2.13;;
53503;SDS011;39387;50.998;22.340;2023-05-07T11:38:51;4.97;;;2.17;;
53503;SDS011;39387;50.998;22.340;2023-05-07T11:41:20;2.83;;;2.00;;
53503;SDS011;39387;50.998;22.340;2023-05-07T11:43:55;3.15;;;2.10;;
53503;SDS011;39387;50.998;22.340;2023-05-07T11:46:23;3.17;;;2.30;;
53503;SDS011;39387;50.998;22.340;2023-05-07T11:48:50;3.95;;;2.20;;
53503;SDS011;39387;50.998;22.340;2023-05-07T11:51:21;3.38;;;2.20;;
53503;SDS011;39387;50.998;22.340;2023-05-07T11:53:51;2.67;;;2.13;;
53503;SDS011;39387;50.998;22.340;2023-05-07T11:56:20;2.33;;;2.00;;
53503;SDS011;39387;50.998;22.340;2023-05-07T11:58:48;3.88;;;2.10;;
53503;SDS011;39387;50.998;22.340;2023-05-07T12:01:17;2.83;;;2.10;;
53503;SDS011;39387;50.998;22.340;2023-05-07T12:03:45;3.55;;;2.13;;
53503;SDS011;39387;50.998;22.340;2023-05-07T12:06:14;2.90;;;2.05;;
53503;SDS011;39387;50.998;22.340;2023-05-07T12:08:42;2.47;;;1.90;;
53503;SDS011;39387;50.998;22.340;2023-05-07T12:11:13;2.38;;;1.65;;
53503;SDS011;39387;50.998;22.340;2023-05-07T12:13:44;5.88;;;1.92;;
53503;SDS011;39387;50.998;22.340;2023-05-07T12:16:11;2.90;;;2.15;;
53503;SDS011;39387;50.998;22.340;2023-05-07T12:18:39;2.03;;;1.70;;
53503;SDS011;39387;50.998;22.340;2023-05-07T12:21:07;2.53;;;2.10;;
53503;SDS011;39387;50.998;22.340;2023-05-07T12:23:35;2.85;;;2.35;;
53503;SDS011;39387;50.998;22.340;2023-05-07T12:26:03;3.70;;;1.70;;
53503;SDS011;39387;50.998;22.340;2023-05-07T12:28:36;2.88;;;1.65;;
53503;SDS011;39387;50.998;22.340;2023-05-07T12:31:07;2.28;;;1.75;;
53503;SDS011;39387;50.998;22.340;2023-05-07T12:33:34;2.08;;;1.80;;
53503;SDS011;39387;50.998;22.340;2023-05-07T12:36:03;2.20;;;1.77;;
53503;SDS011;39387;50.998;22.340;2023-05-07T12:38:36;2.10;;;1.50;;
53503;SDS011;39387;50.998;22.340;2023-05-07T12:41:06;3.22;;;1.98;;
53503;SDS011;39387;50.998;22.340;2023-05-07T12:43:34;2.83;;;1.73;;
53503;SDS011;39387;50.998;22.340;2023-05-07T12:46:03;2.50;;;1.70;;
53503;SDS011;39387;50.998;22.340;2023-05-07T12:48:33;2.63;;;1.88;;
53503;SDS011;39387;50.998;22.340;2023-05-07T12:51:02;2.30;;;1.67;;
53503;SDS011;39387;50.998;22.340;2023-05-07T12:53:30;1.90;;;1.50;;
53503;SDS011;39387;50.998;22.340;2023-05-07T12:55:58;3.03;;;1.40;;
53503;SDS011;39387;50.998;22.340;2023-05-07T12:58:27;1.55;;;1.40;;
53503;SDS011;39387;50.998;22.340;2023-05-07T13:00:56;2.97;;;1.90;;
53503;SDS011;39387;50.998;22.340;2023-05-07T13:03:25;1.92;;;1.60;;
53503;SDS011;39387;50.998;22.340;2023-05-07T13:05:55;2.55;;;1.70;;
53503;SDS011;39387;50.998;22.340;2023-05-07T13:08:27;3.83;;;1.67;;
53503;SDS011;39387;50.998;22.340;2023-05-07T13:10:56;2.00;;;1.70;;
53503;SDS011;39387;50.998;22.340;2023-05-07T13:13:25;2.97;;;1.88;;
53503;SDS011;39387;50.998;22.340;2023-05-07T13:15:52;3.40;;;1.80;;
53503;SDS011;39387;50.998;22.340;2023-05-07T13:18:20;2.33;;;1.70;;
53503;SDS011;39387;50.998;22.340;2023-05-07T13:20:47;3.35;;;1.77;;
53503;SDS011;39387;50.998;22.340;2023-05-07T13:23:16;2.92;;;1.70;;
53503;SDS011;39387;50.998;22.340;2023-05-07T13:25:44;3.78;;;1.98;;
53503;SDS011;39387;50.998;22.340;2023-05-07T13:28:12;2.08;;;1.80;;
53503;SDS011;39387;50.998;22.340;2023-05-07T13:30:39;3.03;;;1.77;;
53503;SDS011;39387;50.998;22.340;2023-05-07T13:33:07;2.50;;;1.70;;
53503;SDS011;39387;50.998;22.340;2023-05-07T13:35:35;2.50;;;1.92;;
53503;SDS011;39387;50.998;22.340;2023-05-07T13:38:03;2.45;;;1.63;;
53503;SDS011;39387;50.998;22.340;2023-05-07T13:40:32;2.03;;;1.60;;
53503;SDS011;39387;50.998;22.340;2023-05-07T13:43:00;2.10;;;1.70;;
53503;SDS011;39387;50.998;22.340;2023-05-07T13:45:28;2.33;;;1.80;;
53503;SDS011;39387;50.998;22.340;2023-05-07T13:47:56;2.42;;;1.58;;
53503;SDS011;39387;50.998;22.340;2023-05-07T13:50:24;2.35;;;1.77;;
53503;SDS011;39387;50.998;22.340;2023-05-07T13:52:53;3.85;;;1.70;;
53503;SDS011;39387;50.998;22.340;2023-05-07T13:55:21;1.90;;;1.55;;
53503;SDS011;39387;50.998;22.340;2023-05-07T13:57:55;2.05;;;1.70;;
53503;SDS011;39387;50.998;22.340;2023-05-07T14:00:23;2.15;;;1.63;;
53503;SDS011;39387;50.998;22.340;2023-05-07T14:02:52;2.63;;;1.90;;
53503;SDS011;39387;50.998;22.340;2023-05-07T14:05:19;2.97;;;1.83;;
53503;SDS011;39387;50.998;22.340;2023-05-07T14:07:48;4.50;;;1.80;;
53503;SDS011;39387;50.998;22.340;2023-05-07T14:10:17;4.03;;;1.83;;
53503;SDS011;39387;50.998;22.340;2023-05-07T14:12:45;2.80;;;2.08;;
53503;SDS011;39387;50.998;22.340;2023-05-07T14:15:15;2.58;;;2.13;;
53503;SDS011;39387;50.998;22.340;2023-05-07T14:17:43;2.13;;;1.80;;
53503;SDS011;39387;50.998;22.340;2023-05-07T14:20:11;2.50;;;1.92;;
53503;SDS011;39387;50.998;22.340;2023-05-07T14:22:39;3.35;;;1.60;;
53503;SDS011;39387;50.998;22.340;2023-05-07T14:25:08;2.55;;;1.90;;
53503;SDS011;39387;50.998;22.340;2023-05-07T14:27:36;1.83;;;1.50;;
53503;SDS011;39387;50.998;22.340;2023-05-07T14:30:04;1.67;;;1.50;;
53503;SDS011;39387;50.998;22.340;2023-05-07T14:32:35;3.00;;;1.63;;
53503;SDS011;39387;50.998;22.340;2023-05-07T14:35:03;2.00;;;1.50;;
53503;SDS011;39387;50.998;22.340;2023-05-07T14:37:31;2.50;;;1.80;;
53503;SDS011;39387;50.998;22.340;2023-05-07T14:39:58;2.47;;;1.52;;
53503;SDS011;39387;50.998;22.340;2023-05-07T14:42:26;2.83;;;1.90;;
53503;SDS011;39387;50.998;22.340;2023-05-07T14:44:53;2.40;;;1.60;;
53503;SDS011;39387;50.998;22.340;2023-05-07T14:47:21;1.90;;;1.70;;
53503;SDS011;39387;50.998;22.340;2023-05-07T14:49:50;3.30;;;1.70;;
53503;SDS011;39387;50.998;22.340;2023-05-07T14:52:19;3.60;;;2.13;;
53503;SDS011;39387;50.998;22.340;2023-05-07T14:54:46;2.20;;;1.65;;
53503;SDS011;39387;50.998;22.340;2023-05-07T14:57:14;2.45;;;1.70;;
53503;SDS011;39387;50.998;22.340;2023-05-07T14:59:41;2.28;;;1.75;;
53503;SDS011;39387;50.998;22.340;2023-05-07T15:02:09;2.95;;;1.70;;
53503;SDS011;39387;50.998;22.340;2023-05-07T15:04:37;2.42;;;1.92;;